sensor_id;sensor_type;location;lat;lon;timestamp;P1;durP1;ratioP1;P2;durP2;ratioP2
31724;SDS011;18306;40.960;14.836;2024-02-28T00:02:13;60.65;;;18.95;;
31724;SDS011;18306;40.960;14.836;2024-02-28T00:04:42;57.90;;;17.85;;
31724;SDS011;18306;40.960;14.836;2024-02-28T00:07:14;55.47;;;15.93;;
31724;SDS011;18306;40.960;14.836;2024-02-28T00:09:42;52.45;;;15.93;;
31724;SDS011;18306;40.960;14.836;2024-02-28T00:12:09;52.30;;;15.60;;
31724;SDS011;18306;40.960;14.836;2024-02-28T00:17:11;58.92;;;16.38;;
31724;SDS011;18306;40.960;14.836;2024-02-28T00:19:40;61.05;;;15.32;;
31724;SDS011;18306;40.960;14.836;2024-02-28T00:22:12;60.58;;;14.77;;
31724;SDS011;18306;40.960;14.836;2024-02-28T00:24:40;56.60;;;16.48;;
31724;SDS011;18306;40.960;14.836;2024-02-28T00:27:07;53.25;;;14.02;;
31724;SDS011;18306;40.960;14.836;2024-02-28T00:29:35;51.33;;;14.88;;
31724;SDS011;18306;40.960;14.836;2024-02-28T00:32:02;68.28;;;16.40;;
31724;SDS011;18306;40.960;14.836;2024-02-28T00:34:29;61.63;;;16.33;;
31724;SDS011;18306;40.960;14.836;2024-02-28T00:36:56;65.60;;;16.75;;
31724;SDS011;18306;40.960;14.836;2024-02-28T00:39:23;59.88;;;16.58;;
31724;SDS011;18306;40.960;14.836;2024-02-28T00:41:51;44.90;;;14.55;;
31724;SDS011;18306;40.960;14.836;2024-02-28T00:44:19;58.30;;;13.90;;
31724;SDS011;18306;40.960;14.836;2024-02-28T00:46:46;56.22;;;14.95;;
31724;SDS011;18306;40.960;14.836;2024-02-28T00:49:13;50.95;;;14.90;;
31724;SDS011;18306;40.960;14.836;2024-02-28T00:51:40;63.17;;;15.95;;
31724;SDS011;18306;40.960;14.836;2024-02-28T00:54:07;61.70;;;14.75;;
31724;SDS011;18306;40.960;14.836;2024-02-28T00:56:35;64.25;;;15.18;;
31724;SDS011;18306;40.960;14.836;2024-02-28T00:59:02;47.17;;;14.73;;
31724;SDS011;18306;40.960;14.836;2024-02-28T01:01:29;54.65;;;14.93;;
31724;SDS011;18306;40.960;14.836;2024-02-28T01:03:56;54.25;;;13.77;;
31724;SDS011;18306;40.960;14.836;2024-02-28T01:06:23;66.53;;;15.43;;
31724;SDS011;18306;40.960;14.836;2024-02-28T01:08:50;61.83;;;14.73;;
31724;SDS011;18306;40.960;14.836;2024-02-28T01:11:17;57.30;;;15.80;;
31724;SDS011;18306;40.960;14.836;2024-02-28T01:13:44;75.32;;;17.33;;
31724;SDS011;18306;40.960;14.836;2024-02-28T01:16:11;58.47;;;14.93;;
31724;SDS011;18306;40.960;14.836;2024-02-28T01:18:38;60.10;;;16.10;;
31724;SDS011;18306;40.960;14.836;2024-02-28T01:21:05;67.38;;;17.15;;
31724;SDS011;18306;40.960;14.836;2024-02-28T01:23:33;63.63;;;16.75;;
31724;SDS011;18306;40.960;14.836;2024-02-28T01:26:00;71.25;;;16.30;;
31724;SDS011;18306;40.960;14.836;2024-02-28T01:28:30;55.53;;;14.75;;
31724;SDS011;18306;40.960;14.836;2024-02-28T01:30:57;60.30;;;15.93;;
31724;SDS011;18306;40.960;14.836;2024-02-28T01:33:24;58.22;;;17.75;;
31724;SDS011;18306;40.960;14.836;2024-02-28T01:35:51;71.00;;;27.75;;
31724;SDS011;18306;40.960;14.836;2024-02-28T01:38:18;59.00;;;21.52;;
31724;SDS011;18306;40.960;14.836;2024-02-28T01:40:46;66.18;;;18.60;;
31724;SDS011;18306;40.960;14.836;2024-02-28T01:43:13;62.13;;;17.27;;
31724;SDS011;18306;40.960;14.836;2024-02-28T01:45:41;58.72;;;15.98;;
31724;SDS011;18306;40.960;14.836;2024-02-28T01:48:11;57.97;;;17.85;;
31724;SDS011;18306;40.960;14.836;2024-02-28T01:50:45;59.75;;;17.60;;
31724;SDS011;18306;40.960;14.836;2024-02-28T01:53:12;55.22;;;17.17;;
31724;SDS011;18306;40.960;14.836;2024-02-28T01:55:40;65.78;;;17.58;;
31724;SDS011;18306;40.960;14.836;2024-02-28T01:58:08;67.05;;;17.58;;
31724;SDS011;18306;40.960;14.836;2024-02-28T02:00:38;51.47;;;16.10;;
31724;SDS011;18306;40.960;14.836;2024-02-28T02:03:05;53.28;;;17.52;;
31724;SDS011;18306;40.960;14.836;2024-02-28T02:05:32;61.10;;;16.38;;
31724;SDS011;18306;40.960;14.836;2024-02-28T02:07:59;65.63;;;21.58;;
31724;SDS011;18306;40.960;14.836;2024-02-28T02:10:28;54.35;;;18.63;;
31724;SDS011;18306;40.960;14.836;2024-02-28T02:12:55;61.33;;;18.13;;
31724;SDS011;18306;40.960;14.836;2024-02-28T02:15:30;54.83;;;15.85;;
31724;SDS011;18306;40.960;14.836;2024-02-28T02:17:58;77.13;;;19.30;;
31724;SDS011;18306;40.960;14.836;2024-02-28T02:20:26;57.63;;;16.15;;
31724;SDS011;18306;40.960;14.836;2024-02-28T02:22:56;73.63;;;17.35;;
31724;SDS011;18306;40.960;14.836;2024-02-28T02:25:23;63.95;;;15.95;;
31724;SDS011;18306;40.960;14.836;2024-02-28T02:27:50;78.35;;;17.95;;
31724;SDS011;18306;40.960;14.836;2024-02-28T02:30:17;62.15;;;18.38;;
31724;SDS011;18306;40.960;14.836;2024-02-28T02:32:44;70.97;;;18.05;;
31724;SDS011;18306;40.960;14.836;2024-02-28T02:35:11;57.28;;;17.00;;
31724;SDS011;18306;40.960;14.836;2024-02-28T02:37:43;61.53;;;17.35;;
31724;SDS011;18306;40.960;14.836;2024-02-28T02:40:17;54.88;;;16.92;;
31724;SDS011;18306;40.960;14.836;2024-02-28T02:42:51;65.63;;;18.52;;
31724;SDS011;18306;40.960;14.836;2024-02-28T02:48:00;54.83;;;15.55;;
31724;SDS011;18306;40.960;14.836;2024-02-28T02:50:28;62.42;;;17.73;;
31724;SDS011;18306;40.960;14.836;2024-02-28T02:52:55;71.30;;;17.35;;
31724;SDS011;18306;40.960;14.836;2024-02-28T02:55:22;69.35;;;18.10;;
31724;SDS011;18306;40.960;14.836;2024-02-28T02:57:49;66.95;;;17.42;;
31724;SDS011;18306;40.960;14.836;2024-02-28T03:00:16;53.30;;;15.45;;
31724;SDS011;18306;40.960;14.836;2024-02-28T03:02:43;48.88;;;15.98;;
31724;SDS011;18306;40.960;14.836;2024-02-28T03:05:11;66.70;;;16.90;;
31724;SDS011;18306;40.960;14.836;2024-02-28T03:07:38;60.85;;;17.23;;
31724;SDS011;18306;40.960;14.836;2024-02-28T03:10:05;67.30;;;19.13;;
31724;SDS011;18306;40.960;14.836;2024-02-28T03:12:33;55.95;;;16.05;;
31724;SDS011;18306;40.960;14.836;2024-02-28T03:15:00;70.90;;;17.05;;
31724;SDS011;18306;40.960;14.836;2024-02-28T03:17:29;61.53;;;18.52;;
31724;SDS011;18306;40.960;14.836;2024-02-28T03:19:56;58.10;;;17.33;;
31724;SDS011;18306;40.960;14.836;2024-02-28T03:22:23;65.30;;;17.58;;
31724;SDS011;18306;40.960;14.836;2024-02-28T03:24:50;77.45;;;17.13;;
31724;SDS011;18306;40.960;14.836;2024-02-28T03:27:17;59.67;;;17.02;;
31724;SDS011;18306;40.960;14.836;2024-02-28T03:29:44;68.50;;;17.17;;
31724;SDS011;18306;40.960;14.836;2024-02-28T03:32:11;63.10;;;16.30;;
31724;SDS011;18306;40.960;14.836;2024-02-28T03:34:39;60.20;;;16.88;;
31724;SDS011;18306;40.960;14.836;2024-02-28T03:37:06;63.92;;;15.80;;
31724;SDS011;18306;40.960;14.836;2024-02-28T03:39:33;56.38;;;16.60;;
31724;SDS011;18306;40.960;14.836;2024-02-28T03:42:00;49.40;;;16.10;;
31724;SDS011;18306;40.960;14.836;2024-02-28T03:44:27;49.42;;;15.73;;
31724;SDS011;18306;40.960;14.836;2024-02-28T03:46:54;66.53;;;18.48;;
31724;SDS011;18306;40.960;14.836;2024-02-28T03:49:21;61.35;;;17.23;;
31724;SDS011;18306;40.960;14.836;2024-02-28T03:51:48;65.53;;;18.33;;
31724;SDS011;18306;40.960;14.836;2024-02-28T03:54:15;62.67;;;23.75;;
31724;SDS011;18306;40.960;14.836;2024-02-28T03:56:42;62.88;;;18.58;;
31724;SDS011;18306;40.960;14.836;2024-02-28T03:59:09;62.80;;;19.58;;
31724;SDS011;18306;40.960;14.836;2024-02-28T04:01:36;63.28;;;18.65;;
31724;SDS011;18306;40.960;14.836;2024-02-28T04:04:03;55.13;;;17.75;;
31724;SDS011;18306;40.960;14.836;2024-02-28T04:06:30;75.28;;;24.98;;
31724;SDS011;18306;40.960;14.836;2024-02-28T04:08:58;78.50;;;24.08;;
31724;SDS011;18306;40.960;14.836;2024-02-28T04:11:25;69.55;;;19.02;;
31724;SDS011;18306;40.960;14.836;2024-02-28T04:13:52;64.13;;;18.55;;
31724;SDS011;18306;40.960;14.836;2024-02-28T04:16:19;84.03;;;23.98;;
31724;SDS011;18306;40.960;14.836;2024-02-28T04:18:46;63.55;;;20.85;;
31724;SDS011;18306;40.960;14.836;2024-02-28T04:21:13;83.50;;;22.50;;
31724;SDS011;18306;40.960;14.836;2024-02-28T04:23:40;71.90;;;18.80;;
31724;SDS011;18306;40.960;14.836;2024-02-28T04:26:08;67.18;;;18.75;;
31724;SDS011;18306;40.960;14.836;2024-02-28T04:28:35;65.60;;;17.38;;
31724;SDS011;18306;40.960;14.836;2024-02-28T04:31:02;65.65;;;17.27;;
31724;SDS011;18306;40.960;14.836;2024-02-28T04:33:30;69.30;;;18.90;;
31724;SDS011;18306;40.960;14.836;2024-02-28T04:35:56;65.03;;;19.90;;
31724;SDS011;18306;40.960;14.836;2024-02-28T04:38:24;63.80;;;19.90;;
31724;SDS011;18306;40.960;14.836;2024-02-28T04:40:51;65.75;;;18.48;;
31724;SDS011;18306;40.960;14.836;2024-02-28T04:43:18;57.88;;;15.45;;
31724;SDS011;18306;40.960;14.836;2024-02-28T04:45:45;69.15;;;17.90;;
31724;SDS011;18306;40.960;14.836;2024-02-28T04:48:12;76.70;;;24.25;;
31724;SDS011;18306;40.960;14.836;2024-02-28T04:50:40;69.47;;;19.33;;
31724;SDS011;18306;40.960;14.836;2024-02-28T04:53:07;67.15;;;18.50;;
31724;SDS011;18306;40.960;14.836;2024-02-28T04:55:34;72.07;;;19.25;;
31724;SDS011;18306;40.960;14.836;2024-02-28T04:58:01;78.57;;;17.38;;
31724;SDS011;18306;40.960;14.836;2024-02-28T05:00:29;69.53;;;17.83;;
31724;SDS011;18306;40.960;14.836;2024-02-28T05:02:56;85.32;;;19.55;;
31724;SDS011;18306;40.960;14.836;2024-02-28T05:05:23;60.50;;;17.83;;
31724;SDS011;18306;40.960;14.836;2024-02-28T05:07:50;70.55;;;18.38;;
31724;SDS011;18306;40.960;14.836;2024-02-28T05:10:19;58.85;;;18.27;;
31724;SDS011;18306;40.960;14.836;2024-02-28T05:12:49;65.93;;;18.13;;
31724;SDS011;18306;40.960;14.836;2024-02-28T05:15:16;62.50;;;15.40;;
31724;SDS011;18306;40.960;14.836;2024-02-28T05:17:43;54.85;;;15.90;;
31724;SDS011;18306;40.960;14.836;2024-02-28T05:20:10;62.58;;;15.27;;
31724;SDS011;18306;40.960;14.836;2024-02-28T05:22:37;73.43;;;15.20;;
31724;SDS011;18306;40.960;14.836;2024-02-28T05:25:06;74.40;;;16.45;;
31724;SDS011;18306;40.960;14.836;2024-02-28T05:27:36;71.22;;;18.45;;
31724;SDS011;18306;40.960;14.836;2024-02-28T05:30:03;59.88;;;16.15;;
31724;SDS011;18306;40.960;14.836;2024-02-28T05:32:32;44.65;;;14.77;;
31724;SDS011;18306;40.960;14.836;2024-02-28T05:34:59;46.28;;;15.05;;
31724;SDS011;18306;40.960;14.836;2024-02-28T05:37:26;54.15;;;15.80;;
31724;SDS011;18306;40.960;14.836;2024-02-28T05:39:53;59.30;;;15.43;;
31724;SDS011;18306;40.960;14.836;2024-02-28T05:42:20;60.40;;;15.68;;
31724;SDS011;18306;40.960;14.836;2024-02-28T05:44:48;49.50;;;14.32;;
31724;SDS011;18306;40.960;14.836;2024-02-28T05:47:16;45.45;;;13.10;;
31724;SDS011;18306;40.960;14.836;2024-02-28T05:49:43;56.67;;;14.88;;
31724;SDS011;18306;40.960;14.836;2024-02-28T05:52:10;54.95;;;14.88;;
31724;SDS011;18306;40.960;14.836;2024-02-28T05:54:37;52.92;;;14.70;;
31724;SDS011;18306;40.960;14.836;2024-02-28T05:57:04;45.80;;;13.63;;
31724;SDS011;18306;40.960;14.836;2024-02-28T05:59:31;49.05;;;13.77;;
31724;SDS011;18306;40.960;14.836;2024-02-28T06:01:58;50.72;;;12.13;;
31724;SDS011;18306;40.960;14.836;2024-02-28T06:04:26;43.10;;;13.15;;
31724;SDS011;18306;40.960;14.836;2024-02-28T06:06:56;41.47;;;11.75;;
31724;SDS011;18306;40.960;14.836;2024-02-28T06:09:32;30.67;;;9.18;;
31724;SDS011;18306;40.960;14.836;2024-02-28T06:12:06;32.00;;;9.05;;
31724;SDS011;18306;40.960;14.836;2024-02-28T06:14:37;28.95;;;7.82;;
31724;SDS011;18306;40.960;14.836;2024-02-28T06:17:12;26.95;;;7.13;;
31724;SDS011;18306;40.960;14.836;2024-02-28T06:19:45;29.20;;;7.18;;
31724;SDS011;18306;40.960;14.836;2024-02-28T06:22:24;26.75;;;7.35;;
31724;SDS011;18306;40.960;14.836;2024-02-28T06:24:57;34.70;;;8.43;;
31724;SDS011;18306;40.960;14.836;2024-02-28T06:27:30;36.78;;;8.30;;
31724;SDS011;18306;40.960;14.836;2024-02-28T06:29:58;32.03;;;8.43;;
31724;SDS011;18306;40.960;14.836;2024-02-28T06:32:25;33.08;;;7.90;;
31724;SDS011;18306;40.960;14.836;2024-02-28T06:34:52;31.77;;;7.50;;
31724;SDS011;18306;40.960;14.836;2024-02-28T06:37:19;31.00;;;8.02;;
31724;SDS011;18306;40.960;14.836;2024-02-28T06:39:46;45.55;;;10.02;;
31724;SDS011;18306;40.960;14.836;2024-02-28T06:42:14;34.08;;;9.32;;
31724;SDS011;18306;40.960;14.836;2024-02-28T06:44:41;29.45;;;8.48;;
31724;SDS011;18306;40.960;14.836;2024-02-28T06:47:08;36.92;;;8.27;;
31724;SDS011;18306;40.960;14.836;2024-02-28T06:49:35;36.33;;;8.82;;
31724;SDS011;18306;40.960;14.836;2024-02-28T06:52:02;30.00;;;6.85;;
31724;SDS011;18306;40.960;14.836;2024-02-28T06:54:30;28.80;;;7.20;;
31724;SDS011;18306;40.960;14.836;2024-02-28T06:56:58;32.22;;;7.55;;
31724;SDS011;18306;40.960;14.836;2024-02-28T06:59:25;38.75;;;7.90;;
31724;SDS011;18306;40.960;14.836;2024-02-28T07:01:52;27.85;;;7.57;;
31724;SDS011;18306;40.960;14.836;2024-02-28T07:04:19;26.73;;;7.68;;
31724;SDS011;18306;40.960;14.836;2024-02-28T07:06:46;36.72;;;7.97;;
31724;SDS011;18306;40.960;14.836;2024-02-28T07:09:13;26.52;;;7.07;;
31724;SDS011;18306;40.960;14.836;2024-02-28T07:11:41;32.25;;;6.38;;
31724;SDS011;18306;40.960;14.836;2024-02-28T07:14:08;28.17;;;6.57;;
31724;SDS011;18306;40.960;14.836;2024-02-28T07:16:35;33.90;;;6.90;;
31724;SDS011;18306;40.960;14.836;2024-02-28T07:19:02;28.50;;;6.10;;
31724;SDS011;18306;40.960;14.836;2024-02-28T07:21:29;27.38;;;6.75;;
31724;SDS011;18306;40.960;14.836;2024-02-28T07:23:58;33.90;;;7.10;;
31724;SDS011;18306;40.960;14.836;2024-02-28T07:26:25;35.40;;;6.47;;
31724;SDS011;18306;40.960;14.836;2024-02-28T07:28:52;34.83;;;6.63;;
31724;SDS011;18306;40.960;14.836;2024-02-28T07:31:19;33.17;;;6.63;;
31724;SDS011;18306;40.960;14.836;2024-02-28T07:33:46;28.58;;;5.78;;
31724;SDS011;18306;40.960;14.836;2024-02-28T07:36:13;28.30;;;7.63;;
31724;SDS011;18306;40.960;14.836;2024-02-28T07:38:43;31.10;;;6.97;;
31724;SDS011;18306;40.960;14.836;2024-02-28T07:41:10;32.55;;;6.45;;
31724;SDS011;18306;40.960;14.836;2024-02-28T07:43:41;31.80;;;7.35;;
31724;SDS011;18306;40.960;14.836;2024-02-28T07:46:09;35.10;;;7.05;;
31724;SDS011;18306;40.960;14.836;2024-02-28T07:48:37;30.77;;;7.50;;
31724;SDS011;18306;40.960;14.836;2024-02-28T07:51:05;31.42;;;7.20;;
31724;SDS011;18306;40.960;14.836;2024-02-28T07:53:33;27.52;;;7.10;;
31724;SDS011;18306;40.960;14.836;2024-02-28T07:56:00;28.15;;;7.47;;
31724;SDS011;18306;40.960;14.836;2024-02-28T07:58:28;31.55;;;7.30;;
31724;SDS011;18306;40.960;14.836;2024-02-28T08:00:55;29.98;;;7.30;;
31724;SDS011;18306;40.960;14.836;2024-02-28T08:03:22;29.35;;;7.35;;
31724;SDS011;18306;40.960;14.836;2024-02-28T08:05:50;36.80;;;9.85;;
31724;SDS011;18306;40.960;14.836;2024-02-28T08:08:17;38.72;;;13.85;;
31724;SDS011;18306;40.960;14.836;2024-02-28T08:10:44;37.05;;;8.43;;
31724;SDS011;18306;40.960;14.836;2024-02-28T08:13:13;36.05;;;9.30;;
31724;SDS011;18306;40.960;14.836;2024-02-28T08:15:40;34.85;;;13.35;;
31724;SDS011;18306;40.960;14.836;2024-02-28T08:18:07;35.80;;;9.88;;
31724;SDS011;18306;40.960;14.836;2024-02-28T08:20:34;31.05;;;7.57;;
31724;SDS011;18306;40.960;14.836;2024-02-28T08:23:02;42.80;;;9.30;;
31724;SDS011;18306;40.960;14.836;2024-02-28T08:25:30;35.15;;;8.82;;
31724;SDS011;18306;40.960;14.836;2024-02-28T08:27:57;31.20;;;8.63;;
31724;SDS011;18306;40.960;14.836;2024-02-28T08:30:24;39.65;;;9.35;;
31724;SDS011;18306;40.960;14.836;2024-02-28T08:32:51;34.33;;;9.20;;
31724;SDS011;18306;40.960;14.836;2024-02-28T08:35:18;38.58;;;8.90;;
31724;SDS011;18306;40.960;14.836;2024-02-28T08:37:45;43.10;;;9.35;;
31724;SDS011;18306;40.960;14.836;2024-02-28T08:40:12;44.00;;;8.70;;
31724;SDS011;18306;40.960;14.836;2024-02-28T08:42:40;45.03;;;9.60;;
31724;SDS011;18306;40.960;14.836;2024-02-28T08:45:08;46.70;;;10.32;;
31724;SDS011;18306;40.960;14.836;2024-02-28T08:47:36;37.92;;;9.68;;
31724;SDS011;18306;40.960;14.836;2024-02-28T08:50:03;33.88;;;10.00;;
31724;SDS011;18306;40.960;14.836;2024-02-28T08:52:30;42.03;;;10.07;;
31724;SDS011;18306;40.960;14.836;2024-02-28T08:54:57;48.35;;;11.63;;
31724;SDS011;18306;40.960;14.836;2024-02-28T08:57:24;46.50;;;10.20;;
31724;SDS011;18306;40.960;14.836;2024-02-28T08:59:51;46.67;;;10.52;;
31724;SDS011;18306;40.960;14.836;2024-02-28T09:02:18;37.60;;;9.45;;
31724;SDS011;18306;40.960;14.836;2024-02-28T09:04:45;43.78;;;8.93;;
31724;SDS011;18306;40.960;14.836;2024-02-28T09:07:17;40.78;;;10.32;;
31724;SDS011;18306;40.960;14.836;2024-02-28T09:09:48;50.35;;;8.52;;
31724;SDS011;18306;40.960;14.836;2024-02-28T09:12:15;52.53;;;9.98;;
31724;SDS011;18306;40.960;14.836;2024-02-28T09:14:42;42.83;;;8.65;;
31724;SDS011;18306;40.960;14.836;2024-02-28T09:17:11;37.55;;;8.82;;
31724;SDS011;18306;40.960;14.836;2024-02-28T09:19:38;45.42;;;9.80;;
31724;SDS011;18306;40.960;14.836;2024-02-28T09:22:05;43.92;;;9.20;;
31724;SDS011;18306;40.960;14.836;2024-02-28T09:24:33;39.22;;;8.52;;
31724;SDS011;18306;40.960;14.836;2024-02-28T09:27:02;39.70;;;9.85;;
31724;SDS011;18306;40.960;14.836;2024-02-28T09:29:29;44.63;;;8.93;;
31724;SDS011;18306;40.960;14.836;2024-02-28T09:31:56;45.45;;;9.38;;
31724;SDS011;18306;40.960;14.836;2024-02-28T09:34:23;46.83;;;9.70;;
31724;SDS011;18306;40.960;14.836;2024-02-28T09:36:50;47.95;;;8.82;;
31724;SDS011;18306;40.960;14.836;2024-02-28T09:39:17;49.03;;;14.45;;
31724;SDS011;18306;40.960;14.836;2024-02-28T09:41:47;50.90;;;10.80;;
31724;SDS011;18306;40.960;14.836;2024-02-28T09:44:18;48.42;;;11.05;;
31724;SDS011;18306;40.960;14.836;2024-02-28T09:46:46;46.88;;;11.40;;
31724;SDS011;18306;40.960;14.836;2024-02-28T09:49:16;48.67;;;9.85;;
31724;SDS011;18306;40.960;14.836;2024-02-28T09:51:45;45.67;;;10.13;;
31724;SDS011;18306;40.960;14.836;2024-02-28T09:54:18;54.67;;;9.98;;
31724;SDS011;18306;40.960;14.836;2024-02-28T09:56:47;47.33;;;10.27;;
31724;SDS011;18306;40.960;14.836;2024-02-28T09:59:17;39.72;;;8.60;;
31724;SDS011;18306;40.960;14.836;2024-02-28T10:01:47;38.28;;;8.90;;
31724;SDS011;18306;40.960;14.836;2024-02-28T10:04:26;43.28;;;9.45;;
31724;SDS011;18306;40.960;14.836;2024-02-28T10:06:56;33.55;;;8.85;;
31724;SDS011;18306;40.960;14.836;2024-02-28T10:09:23;38.45;;;8.32;;
31724;SDS011;18306;40.960;14.836;2024-02-28T10:11:50;39.58;;;8.80;;
31724;SDS011;18306;40.960;14.836;2024-02-28T10:14:18;28.75;;;7.85;;
31724;SDS011;18306;40.960;14.836;2024-02-28T10:16:45;36.20;;;7.43;;
31724;SDS011;18306;40.960;14.836;2024-02-28T10:19:13;38.08;;;8.25;;
31724;SDS011;18306;40.960;14.836;2024-02-28T10:21:40;44.25;;;9.25;;
31724;SDS011;18306;40.960;14.836;2024-02-28T10:24:08;43.42;;;8.45;;
31724;SDS011;18306;40.960;14.836;2024-02-28T10:26:47;45.40;;;10.48;;
31724;SDS011;18306;40.960;14.836;2024-02-28T10:29:23;52.53;;;11.88;;
31724;SDS011;18306;40.960;14.836;2024-02-28T10:32:06;39.40;;;10.68;;
31724;SDS011;18306;40.960;14.836;2024-02-28T10:34:36;51.00;;;10.75;;
31724;SDS011;18306;40.960;14.836;2024-02-28T10:37:13;38.72;;;10.25;;
31724;SDS011;18306;40.960;14.836;2024-02-28T10:39:44;40.33;;;9.88;;
31724;SDS011;18306;40.960;14.836;2024-02-28T10:42:18;35.50;;;7.82;;
31724;SDS011;18306;40.960;14.836;2024-02-28T10:44:59;36.53;;;8.10;;
31724;SDS011;18306;40.960;14.836;2024-02-28T10:47:51;44.47;;;9.25;;
31724;SDS011;18306;40.960;14.836;2024-02-28T10:50:23;32.47;;;7.55;;
31724;SDS011;18306;40.960;14.836;2024-02-28T10:53:13;33.17;;;8.27;;
31724;SDS011;18306;40.960;14.836;2024-02-28T10:55:42;37.58;;;8.35;;
31724;SDS011;18306;40.960;14.836;2024-02-28T10:58:14;54.85;;;13.07;;
31724;SDS011;18306;40.960;14.836;2024-02-28T11:00:42;52.28;;;16.73;;
31724;SDS011;18306;40.960;14.836;2024-02-28T11:03:13;38.83;;;12.63;;
31724;SDS011;18306;40.960;14.836;2024-02-28T11:05:43;35.97;;;10.02;;
31724;SDS011;18306;40.960;14.836;2024-02-28T11:08:24;33.78;;;10.23;;
31724;SDS011;18306;40.960;14.836;2024-02-28T11:10:57;33.90;;;8.88;;
31724;SDS011;18306;40.960;14.836;2024-02-28T11:13:26;43.00;;;11.25;;
31724;SDS011;18306;40.960;14.836;2024-02-28T11:15:54;33.90;;;8.68;;
31724;SDS011;18306;40.960;14.836;2024-02-28T11:18:24;38.78;;;9.38;;
31724;SDS011;18306;40.960;14.836;2024-02-28T11:20:51;27.33;;;8.75;;
31724;SDS011;18306;40.960;14.836;2024-02-28T11:23:18;34.42;;;11.23;;
31724;SDS011;18306;40.960;14.836;2024-02-28T11:25:45;34.55;;;10.55;;
31724;SDS011;18306;40.960;14.836;2024-02-28T11:28:13;25.77;;;7.53;;
31724;SDS011;18306;40.960;14.836;2024-02-28T11:30:42;39.92;;;10.50;;
31724;SDS011;18306;40.960;14.836;2024-02-28T11:33:09;38.58;;;9.55;;
31724;SDS011;18306;40.960;14.836;2024-02-28T11:35:36;28.88;;;8.48;;
31724;SDS011;18306;40.960;14.836;2024-02-28T11:38:06;31.80;;;8.48;;
31724;SDS011;18306;40.960;14.836;2024-02-28T11:40:33;30.10;;;7.70;;
31724;SDS011;18306;40.960;14.836;2024-02-28T11:43:00;20.60;;;5.82;;
31724;SDS011;18306;40.960;14.836;2024-02-28T11:45:29;33.42;;;7.20;;
31724;SDS011;18306;40.960;14.836;2024-02-28T11:47:57;22.58;;;6.60;;
31724;SDS011;18306;40.960;14.836;2024-02-28T11:50:24;27.13;;;7.22;;
31724;SDS011;18306;40.960;14.836;2024-02-28T11:52:52;14.63;;;5.18;;
31724;SDS011;18306;40.960;14.836;2024-02-28T11:55:19;18.23;;;5.90;;
31724;SDS011;18306;40.960;14.836;2024-02-28T11:57:46;17.80;;;5.15;;
31724;SDS011;18306;40.960;14.836;2024-02-28T12:00:14;18.17;;;5.60;;
31724;SDS011;18306;40.960;14.836;2024-02-28T12:02:41;18.60;;;5.07;;
31724;SDS011;18306;40.960;14.836;2024-02-28T12:05:08;16.70;;;5.15;;
31724;SDS011;18306;40.960;14.836;2024-02-28T12:07:36;12.45;;;5.10;;
31724;SDS011;18306;40.960;14.836;2024-02-28T12:10:03;12.43;;;4.50;;
31724;SDS011;18306;40.960;14.836;2024-02-28T12:12:30;19.77;;;6.05;;
31724;SDS011;18306;40.960;14.836;2024-02-28T12:14:59;18.20;;;6.53;;
31724;SDS011;18306;40.960;14.836;2024-02-28T12:17:27;16.17;;;5.03;;
31724;SDS011;18306;40.960;14.836;2024-02-28T12:19:55;22.77;;;8.10;;
31724;SDS011;18306;40.960;14.836;2024-02-28T12:22:22;17.08;;;4.88;;
31724;SDS011;18306;40.960;14.836;2024-02-28T12:24:49;19.75;;;5.63;;
31724;SDS011;18306;40.960;14.836;2024-02-28T12:27:16;10.02;;;4.13;;
31724;SDS011;18306;40.960;14.836;2024-02-28T12:29:43;14.43;;;5.28;;
31724;SDS011;18306;40.960;14.836;2024-02-28T12:32:10;12.40;;;5.10;;
31724;SDS011;18306;40.960;14.836;2024-02-28T12:34:38;15.95;;;4.55;;
31724;SDS011;18306;40.960;14.836;2024-02-28T12:37:05;17.15;;;7.05;;
31724;SDS011;18306;40.960;14.836;2024-02-28T12:39:33;13.10;;;5.13;;
31724;SDS011;18306;40.960;14.836;2024-02-28T12:42:00;21.42;;;5.10;;
31724;SDS011;18306;40.960;14.836;2024-02-28T12:44:27;11.55;;;4.45;;
31724;SDS011;18306;40.960;14.836;2024-02-28T12:46:54;14.45;;;4.60;;
31724;SDS011;18306;40.960;14.836;2024-02-28T12:49:21;13.80;;;3.83;;
31724;SDS011;18306;40.960;14.836;2024-02-28T12:51:48;16.80;;;4.15;;
31724;SDS011;18306;40.960;14.836;2024-02-28T12:54:17;10.73;;;3.55;;
31724;SDS011;18306;40.960;14.836;2024-02-28T12:56:46;12.55;;;4.93;;
31724;SDS011;18306;40.960;14.836;2024-02-28T12:59:16;10.43;;;3.05;;
31724;SDS011;18306;40.960;14.836;2024-02-28T13:01:43;13.02;;;4.53;;
31724;SDS011;18306;40.960;14.836;2024-02-28T13:04:10;12.30;;;3.45;;
31724;SDS011;18306;40.960;14.836;2024-02-28T13:06:41;12.63;;;3.42;;
31724;SDS011;18306;40.960;14.836;2024-02-28T13:09:09;12.65;;;3.22;;
31724;SDS011;18306;40.960;14.836;2024-02-28T13:11:39;8.18;;;2.30;;
31724;SDS011;18306;40.960;14.836;2024-02-28T13:14:06;11.68;;;2.65;;
31724;SDS011;18306;40.960;14.836;2024-02-28T13:16:34;14.27;;;2.72;;
31724;SDS011;18306;40.960;14.836;2024-02-28T13:19:02;10.75;;;3.03;;
31724;SDS011;18306;40.960;14.836;2024-02-28T13:21:28;11.50;;;3.10;;
31724;SDS011;18306;40.960;14.836;2024-02-28T13:23:56;12.48;;;3.10;;
31724;SDS011;18306;40.960;14.836;2024-02-28T13:26:23;13.77;;;3.08;;
31724;SDS011;18306;40.960;14.836;2024-02-28T13:28:50;9.02;;;2.72;;
31724;SDS011;18306;40.960;14.836;2024-02-28T13:31:17;13.70;;;2.38;;
31724;SDS011;18306;40.960;14.836;2024-02-28T13:33:44;8.02;;;2.53;;
31724;SDS011;18306;40.960;14.836;2024-02-28T13:36:11;11.02;;;2.72;;
31724;SDS011;18306;40.960;14.836;2024-02-28T13:38:38;10.02;;;3.10;;
31724;SDS011;18306;40.960;14.836;2024-02-28T13:41:05;14.23;;;3.58;;
31724;SDS011;18306;40.960;14.836;2024-02-28T13:43:32;12.85;;;3.20;;
31724;SDS011;18306;40.960;14.836;2024-02-28T13:45:59;11.18;;;3.25;;
31724;SDS011;18306;40.960;14.836;2024-02-28T13:48:27;11.38;;;3.75;;
31724;SDS011;18306;40.960;14.836;2024-02-28T13:50:59;9.02;;;2.78;;
31724;SDS011;18306;40.960;14.836;2024-02-28T13:53:28;10.57;;;2.78;;
31724;SDS011;18306;40.960;14.836;2024-02-28T13:55:55;12.80;;;2.85;;
31724;SDS011;18306;40.960;14.836;2024-02-28T13:58:22;13.95;;;2.92;;
31724;SDS011;18306;40.960;14.836;2024-02-28T14:00:49;12.93;;;3.08;;
31724;SDS011;18306;40.960;14.836;2024-02-28T14:03:17;10.07;;;2.60;;
31724;SDS011;18306;40.960;14.836;2024-02-28T14:05:44;14.85;;;2.88;;
31724;SDS011;18306;40.960;14.836;2024-02-28T14:08:11;12.88;;;2.58;;
31724;SDS011;18306;40.960;14.836;2024-02-28T14:10:38;12.20;;;3.80;;
31724;SDS011;18306;40.960;14.836;2024-02-28T14:13:07;12.40;;;3.78;;
31724;SDS011;18306;40.960;14.836;2024-02-28T14:15:35;12.27;;;4.00;;
31724;SDS011;18306;40.960;14.836;2024-02-28T14:18:03;11.23;;;3.30;;
31724;SDS011;18306;40.960;14.836;2024-02-28T14:20:30;6.53;;;3.10;;
31724;SDS011;18306;40.960;14.836;2024-02-28T14:22:57;9.55;;;3.30;;
31724;SDS011;18306;40.960;14.836;2024-02-28T14:25:24;14.32;;;3.03;;
31724;SDS011;18306;40.960;14.836;2024-02-28T14:27:51;8.70;;;2.63;;